Saverton, Missouri
Current Conditions -  °F | °C
As of 10:35 PM on Saturday 20 Dec 2014 (Local Time) from KHAE Reporting Station
Overcast Overcast  
Wind Chill: 34°   Ceiling: 3100
Heat Index: 37°   Visibility: 7mi
Dew Point: 32°   Wind: 5mph
Humidity: 81%   Direction: 160°SSE
Pressure: 30.2"   Gusts: NA
Location:  39.65°N, 91.27°W
Report Text: KHAE 210435Z AUTO 16004KT 7SM SCT025 OVC031 03/00 A3020 RMK AO2
Loading
Personal Weather Stations






























Interactive Weather Map New forecast layout! Learn more

10-Day Weather Forecast

Advertisements
Track Severe Weather on mobile